createdAt,value
2022-10-11T00:01:27.572Z,3.42
2022-10-11T00:03:54.501Z,3.33
2022-10-11T00:06:21.426Z,3.60
2022-10-11T00:08:48.315Z,3.00
2022-10-11T00:11:15.302Z,3.20
2022-10-11T00:13:42.261Z,3.20
2022-10-11T00:16:11.749Z,3.15
2022-10-11T00:18:39.121Z,3.47
2022-10-11T00:21:08.967Z,3.40
2022-10-11T00:23:36.076Z,3.13
2022-10-11T00:26:06.262Z,3.22
2022-10-11T00:28:34.181Z,3.30
2022-10-11T00:31:01.555Z,3.50
2022-10-11T00:33:28.851Z,3.20
2022-10-11T00:35:56.184Z,3.00
2022-10-11T00:38:23.135Z,3.35
2022-10-11T00:40:50.071Z,3.70
2022-10-11T00:43:18.915Z,3.03
2022-10-11T00:45:58.136Z,2.80
2022-10-11T00:48:35.554Z,3.30
2022-10-11T00:51:08.304Z,3.20
2022-10-11T00:53:35.606Z,2.90
2022-10-11T00:56:20.678Z,3.00
2022-10-11T00:58:48.312Z,2.70
2022-10-11T01:01:15.471Z,2.65
2022-10-11T01:03:43.903Z,3.20
2022-10-11T01:06:10.897Z,3.63
2022-10-11T01:08:39.009Z,3.10
2022-10-11T01:11:06.437Z,3.20
2022-10-11T01:13:39.350Z,3.70
2022-10-11T01:16:37.155Z,3.70
2022-10-11T01:19:51.145Z,3.47
2022-10-11T01:22:39.507Z,3.00
2022-10-11T01:25:21.247Z,3.30
2022-10-11T01:27:59.961Z,3.30
2022-10-11T01:30:29.884Z,3.60
2022-10-11T01:32:59.927Z,3.30
2022-10-11T01:35:38.318Z,3.40
2022-10-11T01:38:30.413Z,3.50
2022-10-11T01:41:02.224Z,3.10
2022-10-11T01:43:30.036Z,3.60
2022-10-11T01:45:58.154Z,3.80
2022-10-11T01:48:25.425Z,3.92
2022-10-11T01:50:55.370Z,3.50
2022-10-11T01:53:44.193Z,3.50
2022-10-11T01:56:38.600Z,3.50
2022-10-11T01:59:28.452Z,3.45
2022-10-11T02:02:28.775Z,3.70
2022-10-11T02:05:03.867Z,3.08
2022-10-11T02:07:47.801Z,3.20
2022-10-11T02:10:29.767Z,3.20
2022-10-11T02:13:28.370Z,3.17
2022-10-11T02:15:58.345Z,3.30
2022-10-11T02:18:28.845Z,3.47
2022-10-11T02:20:58.736Z,3.53
2022-10-11T02:23:34.708Z,3.72
2022-10-11T02:26:05.077Z,3.47
2022-10-11T02:28:36.738Z,3.50
2022-10-11T02:31:06.660Z,3.30
2022-10-11T02:33:42.825Z,3.60
2022-10-11T02:36:21.835Z,3.17
2022-10-11T02:38:54.677Z,3.58
2022-10-11T02:41:36.446Z,3.15
2022-10-11T02:44:08.537Z,3.20
2022-10-11T02:46:37.360Z,3.60
2022-10-11T02:49:04.612Z,3.25
2022-10-11T02:51:31.951Z,3.10
2022-10-11T02:53:59.141Z,3.20
2022-10-11T02:56:25.901Z,3.70
2022-10-11T02:58:52.620Z,3.30
2022-10-11T03:01:19.480Z,3.00
2022-10-11T03:03:46.293Z,3.10
2022-10-11T03:06:13.168Z,3.40
2022-10-11T03:08:39.887Z,3.00
2022-10-11T03:11:06.852Z,3.30
2022-10-11T03:13:33.605Z,3.10
2022-10-11T03:16:03.595Z,3.45
2022-10-11T03:18:31.455Z,3.13
2022-10-11T03:20:58.205Z,3.25
2022-10-11T03:23:24.997Z,2.90
2022-10-11T03:25:52.056Z,3.47
2022-10-11T03:28:22.243Z,2.88
2022-10-11T03:30:49.758Z,3.00
2022-10-11T03:33:17.212Z,3.10
2022-10-11T03:35:45.829Z,3.13
2022-10-11T03:38:15.428Z,3.30
2022-10-11T03:40:43.290Z,3.50
2022-10-11T03:43:10.857Z,3.15
2022-10-11T03:45:37.620Z,3.40
2022-10-11T03:48:05.094Z,3.67
2022-10-11T03:50:31.823Z,2.75
2022-10-11T03:52:58.544Z,3.10
2022-10-11T03:55:25.360Z,3.30
2022-10-11T03:57:52.119Z,3.50
2022-10-11T04:00:18.889Z,3.47
2022-10-11T04:02:45.709Z,3.10
2022-10-11T04:05:12.667Z,3.40
2022-10-11T04:07:40.066Z,3.13
2022-10-11T04:10:07.692Z,3.47
2022-10-11T04:12:34.822Z,3.00
2022-10-11T04:15:01.618Z,3.10
2022-10-11T04:17:28.321Z,3.10
2022-10-11T04:19:55.098Z,3.28
2022-10-11T04:22:21.818Z,3.05
2022-10-11T04:24:48.577Z,3.00
2022-10-11T04:27:15.301Z,3.00
2022-10-11T04:29:42.023Z,3.30
2022-10-11T04:32:08.906Z,3.47
2022-10-11T04:34:35.646Z,3.17
2022-10-11T04:37:02.358Z,3.30
2022-10-11T04:39:29.100Z,3.40
2022-10-11T04:41:55.892Z,3.72
2022-10-11T04:44:22.653Z,3.50
2022-10-11T04:46:49.392Z,3.30
2022-10-11T04:49:16.158Z,2.97
2022-10-11T04:51:42.954Z,3.20
2022-10-11T04:54:09.765Z,3.03
2022-10-11T04:56:36.592Z,3.10
2022-10-11T04:59:03.613Z,2.67
2022-10-11T05:01:30.372Z,2.70
2022-10-11T05:03:57.121Z,2.70
2022-10-11T05:06:24.175Z,3.05
2022-10-11T05:08:50.946Z,3.35
2022-10-11T05:11:18.225Z,3.00
2022-10-11T05:13:45.949Z,3.25
2022-10-11T05:16:13.605Z,2.70
2022-10-11T05:18:40.633Z,2.60
2022-10-11T05:21:27.648Z,3.10
2022-10-11T05:23:56.313Z,2.65
2022-10-11T05:26:25.138Z,3.13
2022-10-11T05:28:52.845Z,3.08
2022-10-11T05:31:20.005Z,3.05
2022-10-11T05:33:46.973Z,2.78
2022-10-11T05:36:14.050Z,3.08
2022-10-11T05:38:41.073Z,2.95
2022-10-11T05:41:10.870Z,3.00
2022-10-11T05:43:37.689Z,2.80
2022-10-11T05:46:04.841Z,3.20
2022-10-11T05:48:32.100Z,3.53
2022-10-11T05:51:00.589Z,2.80
2022-10-11T05:53:27.453Z,3.33
2022-10-11T05:55:54.348Z,3.45
2022-10-11T05:58:21.346Z,2.90
2022-10-11T06:00:48.124Z,3.30
2022-10-11T06:03:16.395Z,3.60
2022-10-11T06:05:43.316Z,3.55
2022-10-11T06:08:10.701Z,3.92
2022-10-11T06:10:38.685Z,3.50
2022-10-11T06:13:06.080Z,3.50
2022-10-11T06:15:33.617Z,3.40
2022-10-11T06:18:00.741Z,4.10
2022-10-11T06:20:27.730Z,3.60
2022-10-11T06:22:54.560Z,3.60
2022-10-11T06:25:21.361Z,3.90
2022-10-11T06:27:48.112Z,3.70
2022-10-11T06:30:15.275Z,3.70
2022-10-11T06:32:42.030Z,3.47
2022-10-11T06:35:09.302Z,3.30
2022-10-11T06:37:36.156Z,3.90
2022-10-11T06:40:02.946Z,3.65
2022-10-11T06:42:29.702Z,3.88
2022-10-11T06:44:56.401Z,4.00
2022-10-11T06:47:23.179Z,3.87
2022-10-11T06:49:49.889Z,3.85
2022-10-11T06:52:16.667Z,3.72
2022-10-11T06:54:44.995Z,6.45
2022-10-11T06:57:12.305Z,4.90
2022-10-11T06:59:39.047Z,5.45
2022-10-11T07:02:06.766Z,4.97
2022-10-11T07:04:33.971Z,4.63
2022-10-11T07:07:00.862Z,4.35
2022-10-11T07:09:27.974Z,4.57
2022-10-11T07:11:54.802Z,4.28
2022-10-11T07:14:21.577Z,4.20
2022-10-11T07:16:48.395Z,4.65
2022-10-11T07:19:15.242Z,4.90
2022-10-11T07:21:42.006Z,4.40
2022-10-11T07:24:09.006Z,7.90
2022-10-11T07:26:38.792Z,6.70
2022-10-11T07:29:08.064Z,5.20
2022-10-11T07:31:37.170Z,5.72
2022-10-11T07:34:04.100Z,5.70
2022-10-11T07:36:30.875Z,5.50
2022-10-11T07:38:57.684Z,5.30
2022-10-11T07:41:24.396Z,5.40
2022-10-11T07:43:51.334Z,5.23
2022-10-11T07:46:18.904Z,4.83
2022-10-11T07:48:46.129Z,5.10
2022-10-11T07:51:16.399Z,4.50
2022-10-11T07:53:45.996Z,4.80
2022-10-11T07:56:15.290Z,4.00
2022-10-11T07:58:43.001Z,4.00
2022-10-11T08:01:11.329Z,4.45
2022-10-11T08:03:38.829Z,4.55
2022-10-11T08:06:10.306Z,5.43
2022-10-11T08:08:37.616Z,5.80
2022-10-11T08:11:05.655Z,6.75
2022-10-11T08:13:32.843Z,6.53
2022-10-11T08:16:00.579Z,6.22
2022-10-11T08:18:27.540Z,6.90
2022-10-11T08:20:54.318Z,6.40
2022-10-11T08:23:21.201Z,7.05
2022-10-11T08:25:48.387Z,7.18
2022-10-11T08:28:17.548Z,6.45
2022-10-11T08:30:49.589Z,7.37
2022-10-11T08:33:18.102Z,7.68
2022-10-11T08:35:45.182Z,7.45
2022-10-11T08:38:12.186Z,8.25
2022-10-11T08:40:45.721Z,8.10
2022-10-11T08:43:24.998Z,8.30
2022-10-11T08:45:55.994Z,8.90
2022-10-11T08:49:01.835Z,8.82
2022-10-11T08:51:38.105Z,9.90
2022-10-11T08:54:14.143Z,10.25
2022-10-11T08:56:43.202Z,11.38
2022-10-11T08:59:12.971Z,11.70
2022-10-11T09:01:47.393Z,11.75
2022-10-11T09:04:15.965Z,11.93
2022-10-11T09:07:24.825Z,13.38
2022-10-11T09:10:26.427Z,12.90
2022-10-11T09:13:11.436Z,13.35
2022-10-11T09:16:06.375Z,12.90
2022-10-11T09:18:51.682Z,12.05
2022-10-11T09:21:30.065Z,12.45
2022-10-11T09:24:24.947Z,11.60
2022-10-11T09:26:57.570Z,11.50
2022-10-11T09:29:50.361Z,11.35
2022-10-11T09:32:23.481Z,10.02
2022-10-11T09:34:59.562Z,11.50
2022-10-11T09:37:40.782Z,11.27
2022-10-11T09:40:43.405Z,10.40
2022-10-11T09:43:10.517Z,11.15
2022-10-11T09:45:37.350Z,10.68
2022-10-11T09:48:06.710Z,11.00
2022-10-11T09:50:34.144Z,11.23
2022-10-11T09:53:04.931Z,11.80
2022-10-11T09:56:02.051Z,11.20
2022-10-11T09:58:31.861Z,10.70
2022-10-11T10:01:07.604Z,11.55
2022-10-11T10:03:44.368Z,11.20
2022-10-11T10:06:24.727Z,10.60
2022-10-11T10:08:51.764Z,10.60
2022-10-11T10:11:19.633Z,12.30
2022-10-11T10:13:52.428Z,11.50
2022-10-11T10:16:28.259Z,11.70
2022-10-11T10:18:57.845Z,12.10
2022-10-11T10:21:29.942Z,12.50
2022-10-11T10:24:00.123Z,12.10
2022-10-11T10:26:27.329Z,13.55
2022-10-11T10:29:04.075Z,12.75
2022-10-11T10:31:55.283Z,13.15
2022-10-11T10:34:33.212Z,13.85
2022-10-11T10:37:11.928Z,14.18
2022-10-11T10:40:03.513Z,15.15
2022-10-11T10:42:30.362Z,15.90
2022-10-11T10:44:58.620Z,17.38
2022-10-11T10:47:50.556Z,18.15
2022-10-11T10:50:31.165Z,17.45
2022-10-11T10:53:25.317Z,18.23
2022-10-11T10:56:00.276Z,17.58
2022-10-11T10:58:39.174Z,18.20
2022-10-11T11:01:18.848Z,18.48
2022-10-11T11:04:20.338Z,18.17
2022-10-11T11:07:15.132Z,17.00
2022-10-11T11:10:05.892Z,16.58
2022-10-11T11:12:44.377Z,16.90
2022-10-11T11:15:31.233Z,15.52
2022-10-11T11:18:34.933Z,16.20
2022-10-11T11:21:16.774Z,15.30
2022-10-11T11:24:05.125Z,15.23
2022-10-11T11:26:53.122Z,15.23
2022-10-11T11:29:40.012Z,14.70
2022-10-11T11:32:34.729Z,14.00
2022-10-11T11:35:14.540Z,14.00
2022-10-11T11:37:44.112Z,14.40
2022-10-11T11:40:18.715Z,13.00
2022-10-11T11:42:55.886Z,14.55
2022-10-11T11:45:29.633Z,13.43
2022-10-11T11:48:03.016Z,13.60
2022-10-11T11:50:36.682Z,12.57
2022-10-11T11:53:12.818Z,13.00
2022-10-11T11:55:58.001Z,13.30
2022-10-11T11:58:46.362Z,13.35
2022-10-11T12:01:22.421Z,13.68
2022-10-11T12:03:55.526Z,12.80
2022-10-11T12:06:22.314Z,14.00
2022-10-11T12:09:21.574Z,12.90
2022-10-11T12:11:57.526Z,11.35
2022-10-11T12:14:33.083Z,11.10
2022-10-11T12:17:07.457Z,10.45
2022-10-11T12:19:35.501Z,10.77
2022-10-11T12:22:19.997Z,11.20
2022-10-11T12:24:54.360Z,12.60
2022-10-11T12:27:36.422Z,10.45
2022-10-11T12:30:05.153Z,10.07
2022-10-11T12:32:34.866Z,10.38
2022-10-11T12:35:32.414Z,8.90
2022-10-11T12:38:17.406Z,7.93
2022-10-11T12:40:47.104Z,8.07
2022-10-11T12:43:19.497Z,7.85
2022-10-11T12:45:48.025Z,8.05
2022-10-11T12:48:33.959Z,8.00
2022-10-11T12:51:10.805Z,9.20
2022-10-11T12:54:08.028Z,8.65
2022-10-11T12:56:48.425Z,7.90
2022-10-11T12:59:21.741Z,7.63
2022-10-11T13:01:57.749Z,8.18
2022-10-11T13:04:31.287Z,6.90
2022-10-11T13:07:06.915Z,7.40
2022-10-11T13:09:39.059Z,7.00
2022-10-11T13:12:07.144Z,6.93
2022-10-11T13:14:44.991Z,7.10
2022-10-11T13:17:39.091Z,7.78
2022-10-11T13:20:21.335Z,6.70
2022-10-11T13:22:51.101Z,6.97
2022-10-11T13:25:21.412Z,7.50
2022-10-11T13:27:50.721Z,7.30
2022-10-11T13:30:34.253Z,7.63
2022-10-11T13:33:05.825Z,8.93
2022-10-11T13:35:37.405Z,8.98
2022-10-11T13:38:08.733Z,8.50
2022-10-11T13:40:37.451Z,7.20
2022-10-11T13:43:05.789Z,7.10
2022-10-11T13:45:35.146Z,7.23
2022-10-11T13:48:01.997Z,7.72
2022-10-11T13:50:33.479Z,8.45
2022-10-11T13:53:08.360Z,8.50
2022-10-11T13:55:53.665Z,8.52
2022-10-11T13:58:32.472Z,7.70
2022-10-11T14:01:02.985Z,8.13
2022-10-11T14:04:15.501Z,7.30
2022-10-11T14:07:24.050Z,7.28
2022-10-11T14:09:51.014Z,6.00
2022-10-11T14:12:40.395Z,5.82
2022-10-11T14:15:38.000Z,5.68
2022-10-11T14:18:50.738Z,5.90
2022-10-11T14:21:20.811Z,5.25
2022-10-11T14:24:05.289Z,4.82
2022-10-11T14:26:39.120Z,5.30
2022-10-11T14:29:12.135Z,5.32
2022-10-11T14:31:42.164Z,4.93
2022-10-11T14:34:16.359Z,4.80
2022-10-11T14:36:43.066Z,4.87
2022-10-11T14:39:16.247Z,5.30
2022-10-11T14:41:43.627Z,4.50
2022-10-11T14:44:10.738Z,4.85
2022-10-11T14:46:38.675Z,4.40
2022-10-11T14:49:26.789Z,4.50
2022-10-11T14:51:55.779Z,4.50
2022-10-11T14:54:24.911Z,4.78
2022-10-11T14:56:53.846Z,5.07
2022-10-11T14:59:24.761Z,4.97
2022-10-11T15:01:53.772Z,4.87
2022-10-11T15:04:25.012Z,4.85
2022-10-11T15:06:54.178Z,4.75
2022-10-11T15:09:21.480Z,4.63
2022-10-11T15:11:49.648Z,5.00
2022-10-11T15:14:16.691Z,5.00
2022-10-11T15:16:43.954Z,4.70
2022-10-11T15:19:25.038Z,5.10
2022-10-11T15:21:52.563Z,5.00
2022-10-11T15:24:19.963Z,4.80
2022-10-11T15:26:48.070Z,5.03
2022-10-11T15:29:17.725Z,4.85
2022-10-11T15:31:45.783Z,5.28
2022-10-11T15:34:12.613Z,5.20
2022-10-11T15:36:39.326Z,4.80
2022-10-11T15:39:25.312Z,5.38
2022-10-11T15:41:52.061Z,5.20
2022-10-11T15:44:18.847Z,4.90
2022-10-11T15:46:45.975Z,4.68
2022-10-11T15:49:13.879Z,5.40
2022-10-11T15:51:40.708Z,5.90
2022-10-11T15:54:07.452Z,5.20
2022-10-11T15:56:34.250Z,5.10
2022-10-11T15:59:01.082Z,5.50
2022-10-11T16:01:27.862Z,5.35
2022-10-11T16:03:54.680Z,5.50
2022-10-11T16:06:21.392Z,4.95
2022-10-11T16:08:48.161Z,5.40
2022-10-11T16:11:14.997Z,5.45
2022-10-11T16:13:41.978Z,5.45
2022-10-11T16:16:10.106Z,5.60
2022-10-11T16:18:37.520Z,5.20
2022-10-11T16:21:14.253Z,5.35
2022-10-11T16:23:41.079Z,5.60
2022-10-11T16:26:11.868Z,5.75
2022-10-11T16:28:39.302Z,5.20
2022-10-11T16:31:10.581Z,4.80
2022-10-11T16:33:45.910Z,5.10
2022-10-11T16:36:31.857Z,5.78
2022-10-11T16:39:00.373Z,5.30
2022-10-11T16:41:27.804Z,5.40
2022-10-11T16:43:55.243Z,5.55
2022-10-11T16:46:22.654Z,5.20
2022-10-11T16:48:49.432Z,4.90
2022-10-11T16:51:16.378Z,5.63
2022-10-11T16:53:43.162Z,5.60
2022-10-11T16:56:11.888Z,5.00
2022-10-11T16:58:38.835Z,5.60
2022-10-11T17:01:10.399Z,5.43
2022-10-11T17:03:37.612Z,5.53
2022-10-11T17:06:05.573Z,5.30
2022-10-11T17:08:33.111Z,5.40
2022-10-11T17:11:00.345Z,5.00
2022-10-11T17:13:27.229Z,5.22
2022-10-11T17:15:54.081Z,5.20
2022-10-11T17:18:20.830Z,5.43
2022-10-11T17:20:47.707Z,5.30
2022-10-11T17:23:14.477Z,4.93
2022-10-11T17:25:45.880Z,4.73
2022-10-11T17:28:13.284Z,4.95
2022-10-11T17:30:41.954Z,5.60
2022-10-11T17:33:09.070Z,5.13
2022-10-11T17:35:35.893Z,5.28
2022-10-11T17:38:06.192Z,5.60
2022-10-11T17:40:33.256Z,5.50
2022-10-11T17:43:00.031Z,5.30
2022-10-11T17:45:26.755Z,5.47
2022-10-11T17:47:54.201Z,6.80
2022-10-11T17:50:20.938Z,5.85
2022-10-11T17:52:47.888Z,6.03
2022-10-11T17:55:14.947Z,5.70
2022-10-11T17:57:41.773Z,5.80
2022-10-11T18:00:09.220Z,5.60
2022-10-11T18:02:36.000Z,5.78
2022-10-11T18:05:04.191Z,5.82
2022-10-11T18:07:31.063Z,6.60
2022-10-11T18:09:57.951Z,5.97
2022-10-11T18:12:25.942Z,5.68
2022-10-11T18:14:52.854Z,5.40
2022-10-11T18:17:19.938Z,5.70
2022-10-11T18:19:46.755Z,5.63
2022-10-11T18:22:13.562Z,6.10
2022-10-11T18:24:41.515Z,7.60
2022-10-11T18:27:08.379Z,7.00
2022-10-11T18:29:35.224Z,6.32
2022-10-11T18:32:01.995Z,6.50
2022-10-11T18:34:28.722Z,5.85
2022-10-11T18:36:55.698Z,6.40
2022-10-11T18:39:22.602Z,5.88
2022-10-11T18:41:49.324Z,6.70
2022-10-11T18:44:17.109Z,7.10
2022-10-11T18:46:44.720Z,6.88
2022-10-11T18:49:11.945Z,7.30
2022-10-11T18:51:40.493Z,6.15
2022-10-11T18:54:12.032Z,7.70
2022-10-11T18:56:41.210Z,6.90
2022-10-11T18:59:08.365Z,7.28
2022-10-11T19:01:38.594Z,7.00
2022-10-11T19:04:07.138Z,7.17
2022-10-11T19:06:36.987Z,6.88
2022-10-11T19:09:17.745Z,6.20
2022-10-11T19:11:44.958Z,6.50
2022-10-11T19:14:14.763Z,6.45
2022-10-11T19:16:45.425Z,6.95
2022-10-11T19:19:12.886Z,6.78
2022-10-11T19:21:39.705Z,6.38
2022-10-11T19:24:06.930Z,6.50
2022-10-11T19:26:36.630Z,6.68
2022-10-11T19:29:06.709Z,6.53
2022-10-11T19:31:35.916Z,6.85
2022-10-11T19:34:02.890Z,6.32
2022-10-11T19:36:35.484Z,6.70
2022-10-11T19:39:04.820Z,6.60
2022-10-11T19:41:32.419Z,7.88
2022-10-11T19:43:59.581Z,7.53
2022-10-11T19:46:49.968Z,6.70
2022-10-11T19:49:15.905Z,6.90
2022-10-11T19:51:42.674Z,6.65
2022-10-11T19:54:13.523Z,7.05
2022-10-11T19:56:40.271Z,6.75
2022-10-11T19:59:07.387Z,7.13
2022-10-11T20:01:35.674Z,7.10
2022-10-11T20:04:05.468Z,7.13
2022-10-11T20:06:38.053Z,6.93
2022-10-11T20:09:28.488Z,6.70
2022-10-11T20:11:56.443Z,6.75
2022-10-11T20:14:23.285Z,6.47
2022-10-11T20:16:50.739Z,6.60
2022-10-11T20:19:17.811Z,6.45
2022-10-11T20:21:45.113Z,6.85
2022-10-11T20:24:12.627Z,6.25
2022-10-11T20:26:39.752Z,6.50
2022-10-11T20:29:07.131Z,5.88
2022-10-11T20:31:38.427Z,6.30
2022-10-11T20:34:07.337Z,5.72
2022-10-11T20:36:35.894Z,6.00
2022-10-11T20:39:03.710Z,6.65
2022-10-11T20:41:32.956Z,6.68
2022-10-11T20:44:01.050Z,6.60
2022-10-11T20:46:31.506Z,6.65
2022-10-11T20:49:02.045Z,6.32
2022-10-11T20:51:34.024Z,6.72
2022-10-11T20:54:02.023Z,6.70
2022-10-11T20:56:29.707Z,7.07
2022-10-11T20:58:57.519Z,7.20
2022-10-11T21:01:33.098Z,7.60
2022-10-11T21:04:01.255Z,7.32
2022-10-11T21:06:29.135Z,7.10
2022-10-11T21:08:56.749Z,7.47
2022-10-11T21:11:31.868Z,7.47
2022-10-11T21:14:02.068Z,7.75
2022-10-11T21:16:29.092Z,7.63
2022-10-11T21:18:57.631Z,7.00
2022-10-11T21:21:25.620Z,7.13
2022-10-11T21:23:57.168Z,6.97
2022-10-11T21:26:24.216Z,6.93
2022-10-11T21:28:51.806Z,7.10
2022-10-11T21:31:20.338Z,6.82
2022-10-11T21:33:47.131Z,7.25
2022-10-11T21:36:17.140Z,8.30
2022-10-11T21:38:44.414Z,8.98
2022-10-11T21:41:14.200Z,8.50
2022-10-11T21:43:41.250Z,8.48
2022-10-11T21:46:54.151Z,8.50
2022-10-11T21:49:16.627Z,9.35
2022-10-11T21:51:43.517Z,8.75
2022-10-11T21:54:10.532Z,7.93
2022-10-11T21:56:37.356Z,8.70
2022-10-11T21:59:06.594Z,8.95
2022-10-11T22:01:36.794Z,8.13
2022-10-11T22:04:04.950Z,8.45
2022-10-11T22:06:31.738Z,7.90
2022-10-11T22:09:00.623Z,7.65
2022-10-11T22:11:27.517Z,8.07
2022-10-11T22:13:54.278Z,7.97
2022-10-11T22:16:21.054Z,7.60
2022-10-11T22:18:48.129Z,7.53
2022-10-11T22:21:21.177Z,7.78
2022-10-11T22:23:50.613Z,6.82
2022-10-11T22:26:27.109Z,7.03
2022-10-11T22:28:53.952Z,6.90
2022-10-11T22:31:21.054Z,7.10
2022-10-11T22:33:48.416Z,7.27
2022-10-11T22:36:19.228Z,6.30
2022-10-11T22:38:47.043Z,6.55
2022-10-11T22:41:13.860Z,6.20
2022-10-11T22:43:40.670Z,6.15
2022-10-11T22:46:08.598Z,6.05
2022-10-11T22:48:35.901Z,5.82
2022-10-11T22:51:02.929Z,5.35
2022-10-11T22:53:30.692Z,5.90
2022-10-11T22:55:57.506Z,5.82
2022-10-11T22:58:24.232Z,5.40
2022-10-11T23:00:51.021Z,5.22
2022-10-11T23:03:18.615Z,5.10
2022-10-11T23:05:55.228Z,5.47
2022-10-11T23:08:22.300Z,5.10
2022-10-11T23:10:49.058Z,5.30
2022-10-11T23:13:15.962Z,5.03
2022-10-11T23:15:42.889Z,5.10
2022-10-11T23:18:09.840Z,5.28
2022-10-11T23:20:38.406Z,4.90
2022-10-11T23:23:05.769Z,5.15
2022-10-11T23:25:32.634Z,4.93
2022-10-11T23:28:02.472Z,4.95
2022-10-11T23:30:29.763Z,4.88
2022-10-11T23:32:56.905Z,5.10
2022-10-11T23:35:23.836Z,5.00
2022-10-11T23:37:52.401Z,5.60
2022-10-11T23:40:19.298Z,5.30
2022-10-11T23:42:46.016Z,6.07
2022-10-11T23:45:12.793Z,4.80
2022-10-11T23:47:40.015Z,4.50
2022-10-11T23:50:07.817Z,4.50
2022-10-11T23:52:34.589Z,4.07
2022-10-11T23:55:01.343Z,3.95
2022-10-11T23:57:28.415Z,4.05
2022-10-11T23:59:55.110Z,4.00
